sensor_id;sensor_type;location;lat;lon;timestamp;P1;durP1;ratioP1;P2;durP2;ratioP2
46505;SDS011;32220;49.808;9.968;2024-01-10T09:27:50;21.83;;;9.17;;
46505;SDS011;32220;49.808;9.968;2024-01-10T09:30:18;18.00;;;9.20;;
46505;SDS011;32220;49.808;9.968;2024-01-10T09:32:46;16.13;;;8.03;;
46505;SDS011;32220;49.808;9.968;2024-01-10T09:35:14;14.70;;;8.60;;
46505;SDS011;32220;49.808;9.968;2024-01-10T09:37:43;15.03;;;8.20;;
46505;SDS011;32220;49.808;9.968;2024-01-10T09:40:13;13.50;;;8.10;;
46505;SDS011;32220;49.808;9.968;2024-01-10T09:42:43;15.33;;;8.00;;
46505;SDS011;32220;49.808;9.968;2024-01-10T09:45:12;13.23;;;7.80;;
46505;SDS011;32220;49.808;9.968;2024-01-10T09:47:43;15.23;;;8.10;;
46505;SDS011;32220;49.808;9.968;2024-01-10T09:50:13;12.03;;;7.30;;
46505;SDS011;32220;49.808;9.968;2024-01-10T09:52:45;11.80;;;6.80;;
46505;SDS011;32220;49.808;9.968;2024-01-10T09:55:18;15.03;;;7.13;;
46505;SDS011;32220;49.808;9.968;2024-01-10T09:57:49;13.23;;;7.30;;
46505;SDS011;32220;49.808;9.968;2024-01-10T10:00:18;12.60;;;7.77;;
46505;SDS011;32220;49.808;9.968;2024-01-10T10:02:46;13.30;;;7.13;;
46505;SDS011;32220;49.808;9.968;2024-01-10T10:05:15;12.40;;;7.47;;
46505;SDS011;32220;49.808;9.968;2024-01-10T10:07:44;15.53;;;7.53;;
46505;SDS011;32220;49.808;9.968;2024-01-10T10:10:13;13.90;;;8.17;;
46505;SDS011;32220;49.808;9.968;2024-01-10T10:13:02;12.80;;;7.60;;
46505;SDS011;32220;49.808;9.968;2024-01-10T10:15:34;12.20;;;7.23;;
46505;SDS011;32220;49.808;9.968;2024-01-10T10:18:02;20.97;;;10.77;;
46505;SDS011;32220;49.808;9.968;2024-01-10T10:20:36;13.20;;;8.23;;
46505;SDS011;32220;49.808;9.968;2024-01-10T10:23:05;13.73;;;7.73;;
46505;SDS011;32220;49.808;9.968;2024-01-10T10:25:52;14.30;;;7.70;;
46505;SDS011;32220;49.808;9.968;2024-01-10T10:28:19;14.97;;;7.50;;
46505;SDS011;32220;49.808;9.968;2024-01-10T10:31:06;12.57;;;7.40;;
46505;SDS011;32220;49.808;9.968;2024-01-10T10:33:38;13.27;;;6.93;;
46505;SDS011;32220;49.808;9.968;2024-01-10T10:36:06;14.27;;;7.63;;
46505;SDS011;32220;49.808;9.968;2024-01-10T10:38:34;11.63;;;7.53;;
46505;SDS011;32220;49.808;9.968;2024-01-10T10:41:02;12.67;;;8.37;;
46505;SDS011;32220;49.808;9.968;2024-01-10T10:43:50;13.50;;;7.57;;
46505;SDS011;32220;49.808;9.968;2024-01-10T10:46:31;12.33;;;7.60;;
46505;SDS011;32220;49.808;9.968;2024-01-10T10:48:59;11.03;;;7.90;;
46505;SDS011;32220;49.808;9.968;2024-01-10T10:51:52;11.87;;;7.47;;
46505;SDS011;32220;49.808;9.968;2024-01-10T10:54:23;11.87;;;7.67;;
46505;SDS011;32220;49.808;9.968;2024-01-10T10:56:52;13.00;;;7.57;;
46505;SDS011;32220;49.808;9.968;2024-01-10T10:59:23;11.50;;;8.27;;
46505;SDS011;32220;49.808;9.968;2024-01-10T11:05:17;13.10;;;8.70;;
46505;SDS011;32220;49.808;9.968;2024-01-10T11:08:37;11.90;;;8.23;;
46505;SDS011;32220;49.808;9.968;2024-01-10T11:11:49;11.20;;;8.43;;
46505;SDS011;32220;49.808;9.968;2024-01-10T11:14:48;11.87;;;7.30;;
46505;SDS011;32220;49.808;9.968;2024-01-10T11:18:01;11.27;;;7.93;;
46505;SDS011;32220;49.808;9.968;2024-01-10T11:21:30;11.50;;;7.67;;
46505;SDS011;32220;49.808;9.968;2024-01-10T11:24:08;10.60;;;7.63;;
46505;SDS011;32220;49.808;9.968;2024-01-10T11:26:38;11.80;;;8.13;;
46505;SDS011;32220;49.808;9.968;2024-01-10T11:29:36;14.10;;;8.70;;
46505;SDS011;32220;49.808;9.968;2024-01-10T11:32:04;13.13;;;8.20;;
46505;SDS011;32220;49.808;9.968;2024-01-10T11:34:39;11.70;;;7.60;;
46505;SDS011;32220;49.808;9.968;2024-01-10T11:37:51;10.67;;;7.40;;
46505;SDS011;32220;49.808;9.968;2024-01-10T11:40:23;12.20;;;7.83;;
46505;SDS011;32220;49.808;9.968;2024-01-10T11:43:14;14.10;;;8.17;;
46505;SDS011;32220;49.808;9.968;2024-01-10T11:45:51;11.97;;;7.57;;
46505;SDS011;32220;49.808;9.968;2024-01-10T11:48:25;14.97;;;8.77;;
46505;SDS011;32220;49.808;9.968;2024-01-10T11:50:56;13.03;;;8.50;;
46505;SDS011;32220;49.808;9.968;2024-01-10T11:53:40;13.67;;;8.83;;
46505;SDS011;32220;49.808;9.968;2024-01-10T11:56:12;14.63;;;8.27;;
46505;SDS011;32220;49.808;9.968;2024-01-10T11:58:52;13.43;;;8.50;;
46505;SDS011;32220;49.808;9.968;2024-01-10T12:01:28;12.33;;;7.90;;
46505;SDS011;32220;49.808;9.968;2024-01-10T12:03:56;13.17;;;8.87;;
46505;SDS011;32220;49.808;9.968;2024-01-10T12:09:38;11.87;;;7.93;;
46505;SDS011;32220;49.808;9.968;2024-01-10T12:12:46;12.67;;;8.00;;
46505;SDS011;32220;49.808;9.968;2024-01-10T12:15:14;12.03;;;8.47;;
46505;SDS011;32220;49.808;9.968;2024-01-10T12:18:35;12.80;;;9.03;;
46505;SDS011;32220;49.808;9.968;2024-01-10T12:36:56;11.83;;;8.37;;
46505;SDS011;32220;49.808;9.968;2024-01-10T12:39:24;12.40;;;8.97;;
46505;SDS011;32220;49.808;9.968;2024-01-10T12:41:57;12.60;;;9.47;;
46505;SDS011;32220;49.808;9.968;2024-01-10T12:44:27;13.03;;;9.40;;
46505;SDS011;32220;49.808;9.968;2024-01-10T12:46:55;15.83;;;9.50;;
46505;SDS011;32220;49.808;9.968;2024-01-10T12:49:23;14.67;;;9.23;;
46505;SDS011;32220;49.808;9.968;2024-01-10T12:51:52;12.63;;;9.03;;
46505;SDS011;32220;49.808;9.968;2024-01-10T12:54:20;14.60;;;9.27;;
46505;SDS011;32220;49.808;9.968;2024-01-10T12:56:48;15.37;;;9.70;;
46505;SDS011;32220;49.808;9.968;2024-01-10T12:59:16;14.40;;;9.37;;
46505;SDS011;32220;49.808;9.968;2024-01-10T13:01:44;13.43;;;8.80;;
46505;SDS011;32220;49.808;9.968;2024-01-10T13:04:12;14.20;;;9.97;;
46505;SDS011;32220;49.808;9.968;2024-01-10T13:06:39;14.50;;;9.60;;
46505;SDS011;32220;49.808;9.968;2024-01-10T13:09:08;14.90;;;10.37;;
46505;SDS011;32220;49.808;9.968;2024-01-10T13:11:36;12.93;;;8.97;;
46505;SDS011;32220;49.808;9.968;2024-01-10T13:14:04;14.03;;;9.30;;
46505;SDS011;32220;49.808;9.968;2024-01-10T13:16:31;13.73;;;9.30;;
46505;SDS011;32220;49.808;9.968;2024-01-10T13:18:59;12.50;;;8.37;;
46505;SDS011;32220;49.808;9.968;2024-01-10T13:21:27;15.60;;;9.70;;
46505;SDS011;32220;49.808;9.968;2024-01-10T13:27:03;15.27;;;8.87;;
46505;SDS011;32220;49.808;9.968;2024-01-10T13:30:00;14.53;;;10.03;;
46505;SDS011;32220;49.808;9.968;2024-01-10T13:32:30;16.27;;;10.30;;
46505;SDS011;32220;49.808;9.968;2024-01-10T13:35:37;14.87;;;9.73;;
46505;SDS011;32220;49.808;9.968;2024-01-10T13:38:07;16.97;;;10.03;;
46505;SDS011;32220;49.808;9.968;2024-01-10T13:40:53;16.77;;;9.67;;
46505;SDS011;32220;49.808;9.968;2024-01-10T13:43:21;12.70;;;9.30;;
46505;SDS011;32220;49.808;9.968;2024-01-10T13:46:02;14.00;;;9.00;;
46505;SDS011;32220;49.808;9.968;2024-01-10T13:48:30;17.43;;;10.57;;
46505;SDS011;32220;49.808;9.968;2024-01-10T13:51:31;13.80;;;8.30;;
46505;SDS011;32220;49.808;9.968;2024-01-10T13:54:19;13.97;;;8.80;;
46505;SDS011;32220;49.808;9.968;2024-01-10T13:57:08;17.43;;;10.10;;
46505;SDS011;32220;49.808;9.968;2024-01-10T13:59:36;20.33;;;10.20;;
46505;SDS011;32220;49.808;9.968;2024-01-10T14:04:56;16.47;;;9.70;;
46505;SDS011;32220;49.808;9.968;2024-01-10T14:07:24;16.03;;;9.63;;
46505;SDS011;32220;49.808;9.968;2024-01-10T14:09:52;16.67;;;9.80;;
46505;SDS011;32220;49.808;9.968;2024-01-10T14:15:37;17.00;;;10.10;;
46505;SDS011;32220;49.808;9.968;2024-01-10T14:18:05;20.77;;;10.90;;
46505;SDS011;32220;49.808;9.968;2024-01-10T14:20:33;24.70;;;11.90;;
46505;SDS011;32220;49.808;9.968;2024-01-10T14:23:01;26.00;;;13.10;;
46505;SDS011;32220;49.808;9.968;2024-01-10T14:25:43;25.83;;;12.33;;
46505;SDS011;32220;49.808;9.968;2024-01-10T14:28:12;18.67;;;11.40;;
46505;SDS011;32220;49.808;9.968;2024-01-10T14:30:40;18.57;;;10.20;;
46505;SDS011;32220;49.808;9.968;2024-01-10T14:33:27;19.37;;;11.03;;
46505;SDS011;32220;49.808;9.968;2024-01-10T14:36:15;19.77;;;9.77;;
46505;SDS011;32220;49.808;9.968;2024-01-10T14:39:00;20.63;;;11.33;;
46505;SDS011;32220;49.808;9.968;2024-01-10T14:42:05;18.53;;;10.77;;
46505;SDS011;32220;49.808;9.968;2024-01-10T14:44:36;18.07;;;10.73;;
46505;SDS011;32220;49.808;9.968;2024-01-10T14:47:04;18.13;;;9.77;;
46505;SDS011;32220;49.808;9.968;2024-01-10T14:49:32;16.10;;;9.97;;
46505;SDS011;32220;49.808;9.968;2024-01-10T14:52:00;19.57;;;11.00;;
46505;SDS011;32220;49.808;9.968;2024-01-10T14:54:28;18.60;;;10.73;;
46505;SDS011;32220;49.808;9.968;2024-01-10T14:56:56;18.67;;;10.23;;
46505;SDS011;32220;49.808;9.968;2024-01-10T14:59:39;18.50;;;10.57;;
46505;SDS011;32220;49.808;9.968;2024-01-10T15:02:07;19.23;;;11.73;;
46505;SDS011;32220;49.808;9.968;2024-01-10T15:04:38;22.77;;;12.20;;
46505;SDS011;32220;49.808;9.968;2024-01-10T15:07:46;26.67;;;12.13;;
46505;SDS011;32220;49.808;9.968;2024-01-10T15:10:14;20.53;;;11.53;;
46505;SDS011;32220;49.808;9.968;2024-01-10T15:12:44;20.47;;;10.87;;
46505;SDS011;32220;49.808;9.968;2024-01-10T15:15:13;16.70;;;10.17;;
46505;SDS011;32220;49.808;9.968;2024-01-10T15:17:40;17.20;;;10.17;;
46505;SDS011;32220;49.808;9.968;2024-01-10T15:20:32;21.23;;;11.10;;
46505;SDS011;32220;49.808;9.968;2024-01-10T15:22:59;18.33;;;10.60;;
46505;SDS011;32220;49.808;9.968;2024-01-10T15:25:47;19.33;;;10.87;;
46505;SDS011;32220;49.808;9.968;2024-01-10T15:29:15;21.43;;;11.33;;
46505;SDS011;32220;49.808;9.968;2024-01-10T15:31:57;16.23;;;9.60;;
46505;SDS011;32220;49.808;9.968;2024-01-10T15:34:25;19.30;;;9.30;;
46505;SDS011;32220;49.808;9.968;2024-01-10T15:37:08;17.70;;;10.07;;
46505;SDS011;32220;49.808;9.968;2024-01-10T15:39:36;15.40;;;8.63;;
46505;SDS011;32220;49.808;9.968;2024-01-10T15:42:08;16.43;;;9.47;;
46505;SDS011;32220;49.808;9.968;2024-01-10T15:44:38;18.40;;;9.53;;
46505;SDS011;32220;49.808;9.968;2024-01-10T15:47:07;16.20;;;9.80;;
46505;SDS011;32220;49.808;9.968;2024-01-10T15:49:34;13.80;;;8.57;;
46505;SDS011;32220;49.808;9.968;2024-01-10T15:52:02;16.80;;;10.27;;
46505;SDS011;32220;49.808;9.968;2024-01-10T15:55:10;14.33;;;8.20;;
46505;SDS011;32220;49.808;9.968;2024-01-10T15:57:38;17.10;;;9.93;;
46505;SDS011;32220;49.808;9.968;2024-01-10T16:03:08;16.07;;;8.93;;
46505;SDS011;32220;49.808;9.968;2024-01-10T16:05:36;16.00;;;8.77;;
46505;SDS011;32220;49.808;9.968;2024-01-10T16:08:04;16.20;;;9.40;;
46505;SDS011;32220;49.808;9.968;2024-01-10T16:10:33;17.67;;;9.23;;
46505;SDS011;32220;49.808;9.968;2024-01-10T16:13:14;14.63;;;8.83;;
46505;SDS011;32220;49.808;9.968;2024-01-10T16:15:56;15.50;;;8.77;;
46505;SDS011;32220;49.808;9.968;2024-01-10T16:18:24;21.30;;;10.07;;
46505;SDS011;32220;49.808;9.968;2024-01-10T16:20:52;12.83;;;7.77;;
46505;SDS011;32220;49.808;9.968;2024-01-10T16:26:32;15.23;;;8.30;;
46505;SDS011;32220;49.808;9.968;2024-01-10T16:29:00;14.33;;;8.63;;
46505;SDS011;32220;49.808;9.968;2024-01-10T16:31:27;11.83;;;7.10;;
46505;SDS011;32220;49.808;9.968;2024-01-10T16:37:22;18.67;;;9.37;;
46505;SDS011;32220;49.808;9.968;2024-01-10T16:39:50;22.87;;;10.93;;
46505;SDS011;32220;49.808;9.968;2024-01-10T16:42:18;17.90;;;8.90;;
46505;SDS011;32220;49.808;9.968;2024-01-10T16:44:45;16.13;;;8.63;;
46505;SDS011;32220;49.808;9.968;2024-01-10T16:47:13;15.40;;;9.50;;
